Time;durP1;ratioP1;P1;durP2;ratioP2;P2;SDS_P1;SDS_P2;PMS_P1;PMS_P2;Temp;Humidity;BMP_temperature;BMP_pressure;BME280_temperature;BME280_humidity;BME280_pressure;Samples;Min_cycle;Max_cycle;Signal;HPM_P1;HPM_P2
2021/07/11 00:04:12;;;;;;;4.22;3.83;;;;;;;20.01;84.81;100024.06;10391766;28;23765;-61
2021/07/11 00:09:14;;;;;;;5.20;4.25;;;;;;;19.98;84.75;100033.38;10399120;28;20068;-62
2021/07/11 00:14:15;;;;;;;5.68;4.78;;;;;;;19.96;84.09;100040.84;10388574;28;20053;-61
2021/07/11 00:19:17;;;;;;;5.70;4.97;;;;;;;19.95;84.50;100048.13;10384573;28;20701;-61
2021/07/11 00:24:18;;;;;;;6.07;5.57;;;;;;;19.85;85.54;100044.06;10408494;22;20037;-70
2021/07/11 00:29:20;;;;;;;6.25;5.65;;;;;;;19.70;85.67;100050.28;10380043;28;20045;-70
2021/07/11 00:34:21;;;;;;;7.97;7.18;;;;;;;19.43;87.05;100041.81;10373955;28;20577;-67
2021/07/11 00:39:23;;;;;;;7.38;6.68;;;;;;;19.25;88.39;100052.16;10385572;28;20056;-70
2021/07/11 00:44:25;;;;;;;6.70;6.10;;;;;;;19.12;88.60;100033.91;10384056;28;20045;-70
2021/07/11 00:49:26;;;;;;;6.43;5.82;;;;;;;19.21;88.20;100037.34;10368143;28;20057;-68
2021/07/11 00:54:28;;;;;;;6.95;6.40;;;;;;;19.26;87.83;100040.34;10364147;28;20049;-69
2021/07/11 00:59:30;;;;;;;7.25;6.60;;;;;;;19.31;88.02;100046.03;10381281;28;20068;-68
2021/07/11 01:04:38;;;;;;;6.60;5.95;;;;;;;19.25;87.13;100047.59;10384108;28;20048;-69
2021/07/11 01:09:44;;;;;;;5.22;4.82;;;;;;;19.08;88.98;100049.63;10380725;28;20076;-70
2021/07/11 01:14:49;;;;;;;6.50;5.90;;;;;;;19.19;87.70;100050.22;10367544;28;20045;-69
2021/07/11 01:20:03;;;;;;;6.38;5.78;;;;;;;19.14;88.23;100047.22;10374573;28;20793;-69
2021/07/11 01:25:12;;;;;;;5.35;4.95;;;;;;;19.19;88.03;100050.22;10371168;28;20049;-69
2021/07/11 01:30:14;;;;;;;5.82;5.22;;;;;;;19.13;87.97;100050.94;10354370;28;20054;-71
2021/07/11 01:35:16;;;;;;;6.72;5.10;;;;;;;19.02;88.97;100042.28;10357937;28;20045;-70
2021/07/11 01:40:19;;;;;;;4.95;4.53;;;;;;;19.00;87.09;100047.00;10368410;28;20056;-69
2021/07/11 01:45:20;;;;;;;3.80;3.50;;;;;;;18.98;88.11;100054.44;10376770;28;20200;-69
2021/07/11 01:50:24;;;;;;;4.28;3.88;;;;;;;18.90;89.19;100041.88;10348274;28;20391;-69
2021/07/11 01:55:28;;;;;;;4.15;3.55;;;;;;;19.06;87.49;100050.84;10350816;28;20040;-70
2021/07/11 02:00:30;;;;;;;5.60;4.10;;;;;;;18.97;88.54;100058.16;10351687;28;20052;-69
2021/07/11 02:05:31;;;;;;;3.50;2.92;;;;;;;18.80;88.68;100051.22;10371010;28;20045;-70
2021/07/11 02:10:33;;;;;;;3.85;3.13;;;;;;;18.75;88.09;100043.69;10360881;28;20046;-69
2021/07/11 02:15:37;;;;;;;5.65;3.28;;;;;;;18.85;87.81;100044.28;10345322;28;20065;-70
2021/07/11 02:20:40;;;;;;;3.50;3.15;;;;;;;18.93;89.14;100042.53;10345733;28;20411;-70
2021/07/11 02:25:45;;;;;;;11.20;4.07;;;;;;;18.99;87.61;100045.34;10346684;28;20045;-70
2021/07/11 02:30:55;;;;;;;3.20;2.90;;;;;;;18.98;87.62;100057.16;10362231;28;21031;-69
2021/07/11 02:35:57;;;;;;;3.97;3.38;;;;;;;19.01;88.77;100053.25;10366444;28;20050;-70
2021/07/11 02:40:59;;;;;;;3.45;2.78;;;;;;;18.98;86.88;100064.41;10352700;28;20049;-70
2021/07/11 02:46:01;;;;;;;4.20;2.80;;;;;;;18.93;88.33;100062.28;10362615;28;20372;-70
2021/07/11 02:51:03;;;;;;;3.35;2.90;;;;;;;18.90;88.99;100055.38;10349784;28;20439;-72
2021/07/11 02:56:05;;;;;;;4.30;2.47;;;;;;;18.95;87.48;100060.22;10368633;28;20049;-70
2021/07/11 03:01:07;;;;;;;3.22;2.50;;;;;;;18.90;89.26;100059.94;10345461;28;20046;-71
2021/07/11 03:06:10;;;;;;;4.30;2.65;;;;;;;19.03;88.72;100054.72;10351819;28;20065;-70
2021/07/11 03:11:12;;;;;;;4.03;2.28;;;;;;;19.00;88.64;100052.41;10374476;28;20519;-70
2021/07/11 03:16:14;;;;;;;3.63;2.53;;;;;;;18.95;86.97;100057.53;10348079;28;20058;-70
2021/07/11 03:21:16;;;;;;;5.40;2.40;;;;;;;18.89;86.86;100050.16;10349630;28;20061;-70
2021/07/11 03:26:19;;;;;;;4.25;2.50;;;;;;;18.94;88.21;100053.13;10363523;28;20061;-70
2021/07/11 03:31:22;;;;;;;;;;;;;;;19.05;89.39;100063.50;10361569;28;20632;-70
2021/07/11 03:36:25;;;;;;;3.38;2.53;;;;;;;18.99;86.98;100066.94;10374479;28;19927;-70
2021/07/11 03:41:32;;;;;;;5.97;3.22;;;;;;;18.80;88.70;100059.31;10384176;28;20592;-71
2021/07/11 03:46:38;;;;;;;5.30;3.17;;;;;;;18.82;88.98;100068.06;10369839;28;20530;-70
2021/07/11 03:51:41;;;;;;;3.30;2.75;;;;;;;18.88;88.71;100060.09;10345304;28;20053;-70
2021/07/11 03:56:45;;;;;;;4.72;4.00;;;;;;;18.91;88.50;100075.06;10368821;28;20057;-70
2021/07/11 04:01:48;;;;;;;3.40;3.08;;;;;;;18.86;87.93;100070.22;10344750;28;20523;-69
2021/07/11 04:06:52;;;;;;;3.47;2.70;;;;;;;18.63;89.53;100072.94;10381581;28;20486;-70
2021/07/11 04:11:54;;;;;;;;;;;;;;;18.70;88.85;100087.34;10356419;28;20397;-70
2021/07/11 04:17:04;;;;;;;5.15;4.47;;;;;;;18.80;89.29;100094.38;10352969;28;19999;-70
2021/07/11 04:22:10;;;;;;;4.45;3.38;;;;;;;18.78;88.56;100102.66;10362184;28;20068;-72
2021/07/11 04:27:12;;;;;;;4.47;3.13;;;;;;;18.87;88.18;100100.72;10366213;28;20103;-69
2021/07/11 04:32:13;;;;;;;7.20;3.33;;;;;;;18.87;88.10;100101.59;10369475;28;20056;-70
2021/07/11 04:37:15;;;;;;;4.75;3.83;;;;;;;18.80;88.97;100100.59;10377241;28;20057;-70
2021/07/11 04:42:17;;;;;;;5.15;3.40;;;;;;;18.96;89.30;100104.19;10386309;28;20050;-70
2021/07/11 04:47:19;;;;;;;5.35;4.35;;;;;;;18.90;88.29;100111.19;10378124;28;20049;-70
2021/07/11 04:52:20;;;;;;;6.80;4.45;;;;;;;19.01;87.54;100115.28;10362603;28;20064;-70
2021/07/11 04:57:23;;;;;;;7.60;5.60;;;;;;;19.00;88.19;100111.75;10371013;28;20056;-71
2021/07/11 05:02:24;;;;;;;5.65;4.35;;;;;;;18.96;86.50;100114.97;10372758;28;20057;-70
2021/07/11 05:07:26;;;;;;;5.50;4.30;;;;;;;18.88;88.09;100123.97;10368387;28;20115;-70
2021/07/11 05:12:27;;;;;;;6.35;5.47;;;;;;;18.82;87.87;100121.97;10360289;28;20064;-70
2021/07/11 05:17:29;;;;;;;4.93;4.53;;;;;;;18.92;86.67;100130.69;10365671;28;20076;-68
2021/07/11 05:22:30;;;;;;;4.75;4.22;;;;;;;19.02;87.85;100127.75;10386489;28;20064;-69
2021/07/11 05:27:32;;;;;;;10.05;4.78;;;;;;;19.08;88.00;100125.16;10400650;28;20123;-69
2021/07/11 05:32:34;;;;;;;5.65;4.60;;;;;;;19.18;88.21;100129.47;10393340;28;20045;-69
2021/07/11 05:37:35;;;;;;;4.15;3.75;;;;;;;19.22;87.22;100130.78;10384203;28;20061;-71
2021/07/11 05:42:37;;;;;;;4.60;3.65;;;;;;;19.26;86.25;100132.09;10397221;28;20057;-71
2021/07/11 05:47:39;;;;;;;5.68;4.68;;;;;;;19.15;86.58;100146.84;10383250;28;20064;-69
2021/07/11 05:52:42;;;;;;;5.00;3.65;;;;;;;19.19;87.36;100152.72;10373429;28;20046;-69
2021/07/11 05:57:44;;;;;;;6.57;4.03;;;;;;;19.16;87.02;100153.94;10399318;28;20518;-70
2021/07/11 06:02:45;;;;;;;4.45;3.58;;;;;;;19.04;87.23;100156.22;10402869;28;20053;-70
2021/07/11 06:07:47;;;;;;;4.05;3.75;;;;;;;18.99;86.99;100158.63;10381269;28;20049;-71
2021/07/11 06:12:48;;;;;;;4.70;3.47;;;;;;;19.01;88.15;100158.44;10401133;28;20431;-69
2021/07/11 06:17:50;;;;;;;3.72;3.42;;;;;;;19.05;87.53;100160.59;10402642;28;20104;-69
2021/07/11 06:22:52;;;;;;;4.38;3.72;;;;;;;19.05;88.74;100174.09;10377607;28;20519;-71
2021/07/11 06:27:53;;;;;;;4.35;4.00;;;;;;;18.85;88.22;100172.84;10397768;28;20037;-70
2021/07/11 06:32:55;;;;;;;5.28;3.60;;;;;;;18.79;89.15;100170.88;10401655;28;20652;-67
2021/07/11 06:38:02;;;;;;;4.13;3.72;;;;;;;18.79;88.13;100165.50;10400612;28;20044;-68
2021/07/11 06:43:03;;;;;;;6.78;3.80;;;;;;;19.00;90.37;100173.78;10400437;28;20075;-69
2021/07/11 06:48:05;;;;;;;6.13;3.22;;;;;;;19.07;87.58;100173.91;10400773;28;20056;-70
2021/07/11 06:53:06;;;;;;;3.70;3.40;;;;;;;19.22;86.27;100184.75;10381352;28;20052;-70
2021/07/11 06:58:08;;;;;;;5.70;3.10;;;;;;;19.27;87.03;100184.19;10389767;28;20049;-69
2021/07/11 07:03:10;;;;;;;6.63;2.80;;;;;;;19.33;86.08;100181.59;10399523;28;20104;-71
2021/07/11 07:08:11;;;;;;;4.38;2.45;;;;;;;19.50;85.25;100182.31;10373436;28;20050;-70
2021/07/11 07:13:13;;;;;;;4.00;2.45;;;;;;;19.45;83.78;100183.88;10399089;28;20068;-70
2021/07/11 07:18:16;;;;;;;3.00;2.38;;;;;;;19.51;85.58;100183.97;10383690;28;20056;-69
2021/07/11 07:23:17;;;;;;;4.13;2.88;;;;;;;19.54;85.31;100189.00;10379537;28;20407;-70
2021/07/11 07:28:19;;;;;;;5.53;2.45;;;;;;;19.41;83.43;100178.84;10376192;28;20155;-72
2021/07/11 07:33:20;;;;;;;7.10;2.67;;;;;;;19.41;84.51;100189.63;10395733;28;20583;-70
2021/07/11 07:38:22;;;;;;;5.88;2.70;;;;;;;19.38;85.16;100189.13;10377980;28;20052;-70
2021/07/11 07:43:24;;;;;;;4.32;2.30;;;;;;;19.46;83.54;100190.94;10405058;28;20146;-70
2021/07/11 07:48:25;;;;;;;6.30;2.13;;;;;;;19.46;83.44;100190.94;10386933;28;20465;-70
2021/07/11 07:53:27;;;;;;;1.92;1.70;;;;;;;19.47;82.80;100198.00;10385092;28;20495;-70
2021/07/11 07:58:28;;;;;;;3.45;1.80;;;;;;;19.43;82.73;100201.06;10398575;28;20060;-72
2021/07/11 08:03:30;;;;;;;2.95;2.15;;;;;;;19.52;83.41;100212.63;10402196;28;20127;-70
2021/07/11 08:08:31;;;;;;;3.67;2.28;;;;;;;19.59;84.57;100213.59;10380006;28;20535;-70
2021/07/11 08:13:37;;;;;;;4.07;2.30;;;;;;;19.59;83.96;100207.34;10378859;28;20440;-68
2021/07/11 08:18:39;;;;;;;3.67;2.63;;;;;;;19.49;82.26;100207.59;10395071;28;20057;-70
2021/07/11 08:23:41;;;;;;;3.88;2.80;;;;;;;19.61;83.71;100216.09;10395886;28;20396;-69
2021/07/11 08:28:42;;;;;;;2.67;2.35;;;;;;;19.75;83.90;100215.28;10379332;28;20072;-71
2021/07/11 08:33:44;;;;;;;4.97;2.28;;;;;;;19.80;82.36;100220.16;10390793;28;20389;-68
2021/07/11 08:38:45;;;;;;;3.10;2.15;;;;;;;19.87;79.59;100221.09;10379901;28;20104;-71
2021/07/11 08:43:47;;;;;;;2.80;2.35;;;;;;;19.93;79.28;100224.91;10398093;28;20134;-69
2021/07/11 08:48:49;;;;;;;2.88;2.08;;;;;;;20.06;79.08;100227.81;10390842;28;20049;-70
2021/07/11 08:53:50;;;;;;;2.92;2.63;;;;;;;20.27;77.65;100226.22;10378219;28;20055;-68
2021/07/11 08:58:55;;;;;;;3.60;3.22;;;;;;;20.32;75.71;100237.31;10396654;28;20131;-69
2021/07/11 09:04:09;;;;;;;4.10;3.20;;;;;;;20.34;77.37;100232.53;10400553;28;20068;-69
2021/07/11 09:09:12;;;;;;;2.53;2.33;;;;;;;20.55;76.02;100234.50;10377731;28;20053;-70
2021/07/11 09:14:24;;;;;;;;;;;;;;;20.62;75.58;100238.09;10370074;28;20053;-70
2021/07/11 09:19:29;;;;;;;3.90;3.15;;;;;;;20.84;73.74;100243.59;10391404;28;19936;-69
2021/07/11 09:24:33;;;;;;;3.85;3.05;;;;;;;20.80;74.58;100251.22;10389241;28;20076;-69
2021/07/11 09:29:36;;;;;;;4.28;3.25;;;;;;;20.64;73.92;100249.56;10377375;28;20077;-69
2021/07/11 09:34:41;;;;;;;4.53;3.67;;;;;;;20.38;76.26;100249.25;10390156;28;20051;-70
2021/07/11 09:39:52;;;;;;;3.92;3.63;;;;;;;20.39;75.34;100246.34;10399829;28;20049;-69
2021/07/11 09:44:56;;;;;;;4.47;4.07;;;;;;;20.64;74.71;100249.56;10394861;28;20430;-72
2021/07/11 09:49:58;;;;;;;4.85;4.35;;;;;;;20.95;74.34;100253.06;10381605;28;20060;-71
2021/07/11 09:55:10;;;;;;;5.40;4.25;;;;;;;21.08;71.69;100260.50;10377718;28;20044;-69
2021/07/11 10:00:32;;;;;;;4.25;3.85;;;;;;;21.26;73.69;100262.72;10377083;28;20453;-71
2021/07/11 10:05:34;;;;;;;4.28;3.88;;;;;;;21.27;71.25;100261.72;10396739;28;20286;-69
2021/07/11 10:10:38;;;;;;;6.32;5.20;;;;;;;21.49;70.83;100257.97;10376627;28;20053;-71
2021/07/11 10:15:41;;;;;;;7.30;6.05;;;;;;;21.88;69.47;100256.63;10385806;28;20049;-71
2021/07/11 10:20:49;;;;;;;5.40;5.00;;;;;;;22.51;68.02;100254.94;10369844;28;20057;-70
2021/07/11 10:25:56;;;;;;;5.45;4.95;;;;;;;22.87;65.42;100243.78;10368224;28;20041;-69
2021/07/11 10:30:58;;;;;;;4.55;4.25;;;;;;;23.29;64.41;100257.28;10396947;28;20306;-69
2021/07/11 10:36:04;;;;;;;5.63;5.13;;;;;;;23.53;64.34;100253.09;10400198;28;20045;-69
2021/07/11 10:41:11;;;;;;;4.75;4.30;;;;;;;23.72;61.52;100247.88;10397398;28;20060;-71
2021/07/11 10:46:13;;;;;;;4.82;4.20;;;;;;;23.14;63.28;100257.44;10376170;28;20057;-71
2021/07/11 10:51:19;;;;;;;4.95;4.40;;;;;;;22.81;61.15;100250.03;10393657;28;20072;-71
2021/07/11 10:56:20;;;;;;;5.65;4.60;;;;;;;22.63;64.13;100247.06;10378355;28;20117;-71
2021/07/11 11:01:24;;;;;;;4.60;4.20;;;;;;;22.57;64.71;100254.94;10380373;28;20782;-70
2021/07/11 11:06:36;;;;;;;;;;;;;;;22.38;63.07;100261.13;10398198;28;20049;-69
2021/07/11 11:11:37;;;;;;;4.07;3.13;;;;;;;22.60;62.74;100253.72;10376981;28;19920;-71
2021/07/11 11:16:45;;;;;;;4.05;3.60;;;;;;;23.39;60.34;100256.84;10398082;28;20061;-71
2021/07/11 11:21:54;;;;;;;3.05;2.75;;;;;;;23.57;57.89;100248.94;10398651;28;20072;-71
2021/07/11 11:26:55;;;;;;;3.92;3.63;;;;;;;23.63;56.69;100253.53;10390684;28;20041;-69
2021/07/11 11:32:00;;;;;;;4.13;3.83;;;;;;;23.32;60.77;100250.59;10393729;28;20295;-71
2021/07/11 11:37:03;;;;;;;4.85;3.45;;;;;;;23.25;61.30;100239.72;10389658;28;20408;-73
2021/07/11 11:42:05;;;;;;;3.67;3.38;;;;;;;23.21;59.05;100241.16;10389986;28;20041;-70
2021/07/11 11:47:07;;;;;;;4.13;3.73;;;;;;;23.16;60.05;100236.34;10378340;28;20088;-73
2021/07/11 11:52:09;;;;;;;5.05;4.10;;;;;;;22.94;60.29;100247.34;10393368;28;20052;-70
2021/07/11 11:57:10;;;;;;;3.75;3.45;;;;;;;22.62;60.08;100248.09;10379248;28;20057;-71
2021/07/11 12:02:12;;;;;;;3.90;3.60;;;;;;;22.49;63.75;100249.72;10393236;28;20053;-71
2021/07/11 12:07:14;;;;;;;5.03;4.40;;;;;;;22.24;68.31;100252.88;10392533;28;20057;-72
2021/07/11 12:12:17;;;;;;;3.85;3.55;;;;;;;21.94;66.66;100254.19;10374140;28;20151;-72
2021/07/11 12:17:19;;;;;;;3.60;3.40;;;;;;;21.63;66.05;100264.38;10388381;28;20081;-71
2021/07/11 12:22:30;;;;;;;4.32;3.92;;;;;;;21.45;67.44;100267.53;10393966;28;20060;-70
2021/07/11 12:27:36;;;;;;;4.78;4.32;;;;;;;21.17;67.34;100262.88;10397251;28;20044;-71
2021/07/11 12:32:40;;;;;;;5.13;4.63;;;;;;;20.99;67.95;100276.00;10386836;28;20052;-72
2021/07/11 12:38:08;;;;;;;4.45;4.13;;;;;;;20.79;67.52;100273.91;10401730;28;20261;-69
2021/07/11 12:43:20;;;;;;;4.90;4.50;;;;;;;20.84;70.19;100274.19;10373527;28;20518;-70
2021/07/11 12:48:36;;;;;;;5.30;4.80;;;;;;;20.94;69.40;100278.44;10382518;28;20052;-70
2021/07/11 12:53:37;;;;;;;7.82;6.82;;;;;;;21.09;70.11;100263.00;10376686;28;20165;-70
2021/07/11 12:58:43;;;;;;;5.78;5.28;;;;;;;21.62;70.19;100256.41;10381675;28;20045;-68
2021/07/11 13:03:56;;;;;;;6.25;5.70;;;;;;;21.97;67.85;100253.78;10375068;28;20045;-72
2021/07/11 13:08:58;;;;;;;6.80;6.20;;;;;;;22.38;67.02;100242.13;10379732;28;20037;-73
2021/07/11 13:14:00;;;;;;;5.88;5.38;;;;;;;22.98;66.85;100244.22;10378728;28;20279;-70
2021/07/11 13:19:01;;;;;;;5.07;4.53;;;;;;;23.51;63.57;100233.47;10388527;28;20476;-70
2021/07/11 13:24:03;;;;;;;4.90;4.40;;;;;;;24.06;62.09;100230.50;10393601;28;20055;-72
2021/07/11 13:29:05;;;;;;;5.28;4.88;;;;;;;24.25;60.14;100234.22;10397045;28;20057;-71
2021/07/11 13:34:07;;;;;;;4.97;4.47;;;;;;;24.51;59.87;100235.16;10398428;28;20052;-73
2021/07/11 13:39:08;;;;;;;4.97;4.57;;;;;;;24.40;58.65;100236.66;10377141;28;20534;-72
2021/07/11 13:44:10;;;;;;;5.65;5.15;;;;;;;24.60;59.20;100230.34;10365142;28;20061;-71
2021/07/11 13:49:12;;;;;;;5.25;4.75;;;;;;;24.78;56.22;100224.19;10372303;28;20081;-72
2021/07/11 13:54:13;;;;;;;4.70;4.20;;;;;;;24.69;56.02;100224.41;10357037;28;20057;-71
2021/07/11 13:59:15;;;;;;;5.15;4.10;;;;;;;24.66;53.48;100203.06;10373534;28;20263;-72
2021/07/11 14:04:16;;;;;;;4.80;4.40;;;;;;;24.73;55.47;100213.13;10372121;28;20060;-72
2021/07/11 14:09:18;;;;;;;4.60;3.63;;;;;;;24.90;55.80;100214.25;10367917;28;20089;-72
2021/07/11 14:14:19;;;;;;;4.15;3.85;;;;;;;24.66;56.58;100205.78;10380634;28;20534;-71
2021/07/11 14:19:21;;;;;;;4.32;3.92;;;;;;;24.53;56.87;100208.59;10387501;28;20045;-74
2021/07/11 14:24:22;;;;;;;4.15;3.70;;;;;;;24.51;58.19;100194.34;10378275;28;20055;-71
2021/07/11 14:29:28;;;;;;;4.82;4.45;;;;;;;24.41;57.98;100210.28;10393384;28;20061;-73
2021/07/11 14:34:30;;;;;;;6.65;5.18;;;;;;;24.03;56.90;100197.47;10392380;28;20053;-70
2021/07/11 14:39:50;;;;;;;5.20;4.35;;;;;;;23.98;57.78;100190.78;10380459;28;20056;-71
2021/07/11 14:44:51;;;;;;;5.28;4.78;;;;;;;24.15;55.36;100195.75;10374130;28;20052;-74
2021/07/11 14:49:53;;;;;;;4.28;3.97;;;;;;;24.29;55.31;100183.78;10381629;28;20068;-72
2021/07/11 14:54:54;;;;;;;4.88;4.25;;;;;;;24.03;54.75;100181.97;10393898;28;20061;-70
2021/07/11 14:59:56;;;;;;;4.15;3.85;;;;;;;24.00;55.49;100176.97;10398774;28;20089;-73
2021/07/11 15:04:57;;;;;;;3.67;3.38;;;;;;;24.03;55.85;100171.09;10388105;28;21735;-72
2021/07/11 15:09:59;;;;;;;4.53;4.13;;;;;;;24.10;56.43;100166.47;10379582;28;20049;-71
2021/07/11 15:15:01;;;;;;;4.43;4.03;;;;;;;24.23;56.09;100157.44;10395931;28;20061;-72
2021/07/11 15:20:04;;;;;;;4.57;4.18;;;;;;;24.31;56.50;100159.91;10378158;28;20045;-72
2021/07/11 15:25:07;;;;;;;3.95;3.58;;;;;;;24.21;56.48;100145.94;10393433;28;20050;-72
2021/07/11 15:30:09;;;;;;;4.13;3.73;;;;;;;24.03;55.62;100143.91;10392309;28;20048;-70
2021/07/11 15:35:11;;;;;;;3.80;3.50;;;;;;;23.89;54.88;100140.41;10368857;28;20056;-71
2021/07/11 15:40:14;;;;;;;4.75;4.00;;;;;;;23.99;55.38;100129.09;10384915;28;20053;-71
2021/07/11 15:45:15;;;;;;;5.32;4.47;;;;;;;23.96;55.22;100121.34;10374747;28;20056;-71
2021/07/11 15:50:17;;;;;;;4.70;4.30;;;;;;;23.91;57.16;100126.63;10388323;28;22843;-73
2021/07/11 15:55:22;;;;;;;4.50;4.10;;;;;;;23.85;57.13;100136.44;10376009;28;20069;-72
2021/07/11 16:00:24;;;;;;;5.10;4.70;;;;;;;23.93;57.44;100121.78;10379713;28;20052;-70
2021/07/11 16:05:27;;;;;;;5.72;4.90;;;;;;;24.02;57.09;100116.94;10377993;28;20055;-73
2021/07/11 16:10:29;;;;;;;6.45;4.28;;;;;;;24.10;55.14;100111.28;10384097;28;20096;-72
2021/07/11 16:15:32;;;;;;;4.22;3.92;;;;;;;24.02;56.02;100111.50;10397684;28;20065;-71
2021/07/11 16:20:33;;;;;;;6.35;4.63;;;;;;;24.07;55.95;100111.72;10357312;28;20056;-73
2021/07/11 16:25:35;;;;;;;4.45;4.07;;;;;;;23.96;56.61;100105.91;10393601;28;20049;-71
2021/07/11 16:30:37;;;;;;;4.72;4.10;;;;;;;23.92;56.52;100101.09;10400908;28;20063;-69
2021/07/11 16:35:38;;;;;;;5.53;5.05;;;;;;;23.69;56.38;100102.41;10383132;28;20058;-70
2021/07/11 16:40:40;;;;;;;4.00;3.70;;;;;;;23.45;56.80;100093.06;10398051;28;20061;-72
2021/07/11 16:45:41;;;;;;;4.68;4.28;;;;;;;23.28;57.40;100089.94;10384082;28;20053;-71
2021/07/11 16:50:43;;;;;;;4.30;3.90;;;;;;;23.20;57.68;100095.63;10398095;28;20057;-69
2021/07/11 16:55:44;;;;;;;5.40;5.00;;;;;;;23.11;57.54;100100.41;10401391;28;20053;-72
2021/07/11 17:00:46;;;;;;;4.97;4.57;;;;;;;23.01;58.22;100098.06;10401321;28;20053;-70
2021/07/11 17:05:53;;;;;;;4.63;4.22;;;;;;;22.87;57.77;100096.44;10385172;28;20206;-72
2021/07/11 17:10:56;;;;;;;5.22;4.82;;;;;;;22.75;57.72;100094.31;10400351;28;20147;-71
2021/07/11 17:15:57;;;;;;;4.70;4.20;;;;;;;22.70;58.90;100091.41;10380495;28;20537;-72
2021/07/11 17:20:59;;;;;;;5.43;4.63;;;;;;;22.75;59.04;100093.50;10374234;28;20302;-72
2021/07/11 17:26:02;;;;;;;5.05;4.63;;;;;;;22.74;58.90;100097.25;10399224;28;20045;-72
2021/07/11 17:31:04;;;;;;;5.07;4.68;;;;;;;22.74;59.67;100094.53;10376686;28;20049;-72
2021/07/11 17:36:06;;;;;;;5.93;5.32;;;;;;;22.78;59.69;100098.50;10401803;28;20526;-73
2021/07/11 17:41:08;;;;;;;5.15;4.75;;;;;;;22.67;59.63;100099.09;10403899;28;20530;-73
2021/07/11 17:46:11;;;;;;;10.35;7.47;;;;;;;22.59;60.20;100098.28;10402613;28;20060;-72
2021/07/11 17:51:13;;;;;;;7.15;5.22;;;;;;;22.54;61.12;100092.63;10388715;28;20060;-72
2021/07/11 17:56:14;;;;;;;7.88;5.47;;;;;;;22.49;61.00;100100.56;10379739;28;20057;-72
2021/07/11 18:01:17;;;;;;;5.88;4.88;;;;;;;22.34;62.04;100103.44;10380319;28;20052;-72
2021/07/11 18:06:19;;;;;;;8.53;5.47;;;;;;;22.28;62.65;100097.94;10374245;28;20396;-71
2021/07/11 18:11:21;;;;;;;5.65;5.20;;;;;;;22.21;62.86;100101.47;10391845;28;20049;-72
2021/07/11 18:16:22;;;;;;;5.03;4.63;;;;;;;22.03;63.45;100101.22;10373193;28;20044;-72
2021/07/11 18:21:25;;;;;;;5.13;4.63;;;;;;;21.96;64.47;100103.06;10388066;28;20045;-71
2021/07/11 18:26:27;;;;;;;6.00;5.20;;;;;;;21.95;65.08;100099.53;10397118;28;20057;-73
2021/07/11 18:31:29;;;;;;;5.47;4.97;;;;;;;21.94;65.82;100102.44;10388961;28;20053;-72
2021/07/11 18:36:31;;;;;;;5.22;4.82;;;;;;;21.87;65.77;100097.81;10375062;28;20572;-74
2021/07/11 18:41:33;;;;;;;5.95;4.82;;;;;;;21.83;66.35;100101.13;10378641;28;20122;-69
2021/07/11 18:46:34;;;;;;;6.63;5.88;;;;;;;21.74;66.92;100097.75;10374551;28;20064;-69
2021/07/11 18:51:37;;;;;;;5.60;5.10;;;;;;;21.66;67.39;100089.78;10383126;28;20057;-70
2021/07/11 18:56:40;;;;;;;6.63;5.85;;;;;;;21.59;67.98;100094.31;10394066;28;20070;-69
2021/07/11 19:01:42;;;;;;;8.47;5.47;;;;;;;21.54;68.17;100095.78;10369836;28;20439;-69
2021/07/11 19:06:43;;;;;;;6.07;5.35;;;;;;;21.42;68.45;100080.25;10385244;28;20063;-69
2021/07/11 19:11:45;;;;;;;6.55;5.93;;;;;;;21.37;69.85;100097.09;10386413;28;20041;-69
2021/07/11 19:16:46;;;;;;;7.10;6.40;;;;;;;21.29;70.33;100099.97;10375989;28;20533;-69
2021/07/11 19:21:48;;;;;;;5.72;5.10;;;;;;;21.23;70.02;100098.00;10376316;28;20060;-70
2021/07/11 19:26:50;;;;;;;5.72;5.25;;;;;;;21.14;71.05;100103.59;10391808;28;20044;-70
2021/07/11 19:31:51;;;;;;;7.18;6.57;;;;;;;21.08;71.76;100104.38;10398175;28;20106;-70
2021/07/11 19:36:53;;;;;;;7.65;6.93;;;;;;;21.02;71.82;100105.16;10386016;28;20044;-69
2021/07/11 19:41:57;;;;;;;7.32;6.20;;;;;;;20.93;72.36;100101.75;10404878;28;20072;-70
2021/07/11 19:46:59;;;;;;;6.57;5.97;;;;;;;20.92;72.43;100115.47;10400740;28;20065;-69
2021/07/11 19:52:01;;;;;;;6.43;5.82;;;;;;;20.84;72.88;100097.53;10405879;28;20072;-71
2021/07/11 19:57:02;;;;;;;6.97;6.35;;;;;;;20.77;72.74;100100.16;10396339;28;20049;-69
2021/07/11 20:02:05;;;;;;;7.75;6.82;;;;;;;20.73;73.11;100101.59;10386692;28;20060;-69
2021/07/11 20:07:06;;;;;;;7.30;6.63;;;;;;;20.66;72.99;100092.56;10403668;28;20053;-68
2021/07/11 20:12:08;;;;;;;7.30;6.28;;;;;;;20.59;73.33;100094.34;10399577;28;20049;-68
2021/07/11 20:17:10;;;;;;;7.13;6.43;;;;;;;20.55;73.22;100106.56;10404118;28;20070;-69
2021/07/11 20:22:15;;;;;;;6.53;5.72;;;;;;;20.47;73.27;100113.75;10382101;28;20058;-70
2021/07/11 20:27:17;;;;;;;7.13;6.03;;;;;;;20.43;73.47;100111.63;10403120;28;20060;-69
2021/07/11 20:32:19;;;;;;;8.75;6.90;;;;;;;20.38;73.44;100114.91;10400347;28;20057;-69
2021/07/11 20:37:20;;;;;;;8.70;7.63;;;;;;;20.35;73.74;100103.66;10401433;28;20462;-69
2021/07/11 20:42:22;;;;;;;8.35;7.65;;;;;;;20.31;73.91;100108.59;10398315;28;20057;-70
2021/07/11 20:47:24;;;;;;;7.03;6.32;;;;;;;20.30;73.90;100112.34;10396717;28;20064;-69
2021/07/11 20:52:25;;;;;;;7.20;6.40;;;;;;;20.27;73.78;100108.13;10404007;28;20053;-70
2021/07/11 20:57:27;;;;;;;7.15;6.45;;;;;;;20.24;74.29;100107.69;10403634;28;20553;-70
2021/07/11 21:02:29;;;;;;;6.53;5.93;;;;;;;20.18;73.94;100092.25;10403019;28;20053;-70
2021/07/11 21:07:30;;;;;;;7.25;6.60;;;;;;;20.13;73.76;100096.34;10383966;28;20055;-70
2021/07/11 21:12:32;;;;;;;7.18;6.45;;;;;;;20.11;73.24;100092.16;10392292;28;20049;-71
2021/07/11 21:17:34;;;;;;;8.02;6.47;;;;;;;20.07;72.94;100091.72;10364721;28;20376;-71
2021/07/11 21:22:35;;;;;;;6.55;5.95;;;;;;;20.04;73.17;100100.19;10362802;28;20073;-69
2021/07/11 21:27:37;;;;;;;6.97;6.43;;;;;;;19.99;73.05;100097.19;10363650;28;20053;-71
2021/07/11 21:32:39;;;;;;;7.20;6.60;;;;;;;19.93;72.86;100103.38;10338275;28;20061;-71
2021/07/11 21:37:40;;;;;;;6.18;5.68;;;;;;;19.90;72.95;100101.03;10361542;28;20066;-71
2021/07/11 21:42:42;;;;;;;7.80;6.82;;;;;;;19.85;73.12;100098.09;10350404;28;20046;-70
2021/07/11 21:47:43;;;;;;;6.00;5.50;;;;;;;19.82;73.41;100093.88;10361637;28;20090;-69
2021/07/11 21:52:47;;;;;;;7.40;6.80;;;;;;;19.80;73.63;100089.69;10346688;28;20132;-70
2021/07/11 21:57:48;;;;;;;8.68;6.53;;;;;;;19.73;74.03;100085.00;10368013;28;20053;-70
2021/07/11 22:02:50;;;;;;;7.55;6.85;;;;;;;19.64;74.84;100075.34;10371633;28;20496;-70
2021/07/11 22:07:52;;;;;;;7.80;7.05;;;;;;;19.66;75.02;100077.84;10379667;28;20058;-71
2021/07/11 22:12:53;;;;;;;8.15;7.38;;;;;;;19.61;75.17;100081.13;10364037;28;20045;-71
2021/07/11 22:17:55;;;;;;;9.57;7.07;;;;;;;19.57;75.38;100079.81;10372816;28;20058;-70
2021/07/11 22:22:57;;;;;;;8.73;7.85;;;;;;;19.55;75.95;100081.88;10373313;28;20773;-71
2021/07/11 22:27:59;;;;;;;8.23;7.13;;;;;;;19.50;76.35;100078.88;10345105;28;20042;-72
2021/07/11 22:33:01;;;;;;;8.02;7.25;;;;;;;19.47;76.57;100081.94;10363793;28;20054;-72
2021/07/11 22:38:03;;;;;;;8.20;7.40;;;;;;;19.40;76.80;100069.19;10367144;28;20057;-71
2021/07/11 22:43:04;;;;;;;9.00;7.38;;;;;;;19.35;76.86;100073.47;10370441;28;20604;-71
2021/07/11 22:48:06;;;;;;;8.60;7.78;;;;;;;19.34;77.29;100079.91;10374695;28;20056;-70
2021/07/11 22:53:07;;;;;;;8.48;7.28;;;;;;;19.35;77.40;100077.03;10373007;28;20110;-71
2021/07/11 22:58:09;;;;;;;9.23;8.00;;;;;;;19.34;77.61;100079.91;10371066;28;20672;-70
2021/07/11 23:03:11;;;;;;;8.57;7.40;;;;;;;19.21;77.69;100080.53;10371942;28;20056;-71
2021/07/11 23:08:12;;;;;;;8.07;7.10;;;;;;;19.14;78.25;100074.19;10385807;28;20531;-71
2021/07/11 23:13:14;;;;;;;9.60;7.05;;;;;;;19.08;78.69;100076.59;10387304;28;20068;-71